Mae Sot, Thailand
Current Conditions -  °F | °C
As of 11:30 PM on Friday 19 Dec 2014 (Local Time) from VTCC Reporting Station
Few Clouds Few Clouds  
Wind Chill: 18°   Ceiling: Unl
Heat Index: 18°   Visibility: 6mi
Dew Point: 14°   Wind: 3mph
Humidity: 77%   Direction: 250°WSW
Pressure: 30.12"   Gusts: NA
Location:  16.71°N, 98.57°E
Report Text: VTCC 191630Z 25003KT 9999 FEW040 18/14 Q1020 A3012 NOSIG
Loading
Personal Weather Stations






























Interactive Weather Map New forecast layout! Learn more

10-Day Weather Forecast

Advertisements
Track Severe Weather on mobile